sensor_id;sensor_type;location;lat;lon;timestamp;pressure;altitude;pressure_sealevel;temperature;humidity
30110;BME280;14965;50.660;13.226;2023-04-08T00:02:18;95045.72;;;1.98;94.99
30110;BME280;14965;50.660;13.226;2023-04-08T00:04:44;95050.34;;;1.91;95.32
30110;BME280;14965;50.660;13.226;2023-04-08T00:07:10;95051.47;;;1.86;95.11
30110;BME280;14965;50.660;13.226;2023-04-08T00:09:36;95048.34;;;1.84;95.54
30110;BME280;14965;50.660;13.226;2023-04-08T00:12:02;95045.63;;;1.84;95.90
30110;BME280;14965;50.660;13.226;2023-04-08T00:14:29;95043.72;;;1.88;96.36
30110;BME280;14965;50.660;13.226;2023-04-08T00:16:55;95042.59;;;1.93;96.59
30110;BME280;14965;50.660;13.226;2023-04-08T00:19:23;95042.59;;;1.96;95.69
30110;BME280;14965;50.660;13.226;2023-04-08T00:21:49;95042.59;;;1.96;95.92
30110;BME280;14965;50.660;13.226;2023-04-08T00:24:14;95047.25;;;1.96;95.83
30110;BME280;14965;50.660;13.226;2023-04-08T00:26:42;95036.75;;;1.94;95.45
30110;BME280;14965;50.660;13.226;2023-04-08T00:29:07;95046.44;;;1.92;95.48
30110;BME280;14965;50.660;13.226;2023-04-08T00:31:33;95043.34;;;1.90;95.58
30110;BME280;14965;50.660;13.226;2023-04-08T00:33:59;95044.09;;;1.90;95.75
30110;BME280;14965;50.660;13.226;2023-04-08T00:36:26;95049.94;;;1.89;95.64
30110;BME280;14965;50.660;13.226;2023-04-08T00:38:52;95049.94;;;1.89;95.67
30110;BME280;14965;50.660;13.226;2023-04-08T00:41:19;95044.81;;;1.80;95.83
30110;BME280;14965;50.660;13.226;2023-04-08T00:43:45;95050.59;;;1.75;96.32
30110;BME280;14965;50.660;13.226;2023-04-08T00:46:11;95055.69;;;1.77;96.35
30110;BME280;14965;50.660;13.226;2023-04-08T00:48:37;95052.97;;;1.77;96.67
30110;BME280;14965;50.660;13.226;2023-04-08T00:51:04;95051.03;;;1.77;96.34
30110;BME280;14965;50.660;13.226;2023-04-08T00:53:35;95045.94;;;1.75;96.77
30110;BME280;14965;50.660;13.226;2023-04-08T00:56:01;95052.47;;;1.64;96.54
30110;BME280;14965;50.660;13.226;2023-04-08T00:58:28;95055.50;;;1.55;96.88
30110;BME280;14965;50.660;13.226;2023-04-08T01:01:02;95048.09;;;1.52;98.03
30110;BME280;14965;50.660;13.226;2023-04-08T01:03:49;95054.28;;;1.49;98.05
30110;BME280;14965;50.660;13.226;2023-04-08T01:06:28;95052.34;;;1.49;98.24
30110;BME280;14965;50.660;13.226;2023-04-08T01:08:59;95055.50;;;1.55;98.19
30110;BME280;14965;50.660;13.226;2023-04-08T01:11:28;95061.34;;;1.57;98.36
30110;BME280;14965;50.660;13.226;2023-04-08T01:13:58;95057.13;;;1.63;98.62
30110;BME280;14965;50.660;13.226;2023-04-08T01:16:27;95065.72;;;1.69;98.76
30110;BME280;14965;50.660;13.226;2023-04-08T01:18:55;95057.13;;;1.67;98.47
30110;BME280;14965;50.660;13.226;2023-04-08T01:21:22;95068.84;;;1.71;98.11
30110;BME280;14965;50.660;13.226;2023-04-08T01:24:00;95054.88;;;1.72;98.00
30110;BME280;14965;50.660;13.226;2023-04-08T01:26:32;95055.66;;;1.73;97.96
30110;BME280;14965;50.660;13.226;2023-04-08T01:29:01;95044.72;;;1.69;97.81
30110;BME280;14965;50.660;13.226;2023-04-08T01:31:30;95053.69;;;1.70;97.61
30110;BME280;14965;50.660;13.226;2023-04-08T01:33:59;95049.78;;;1.67;97.58
30110;BME280;14965;50.660;13.226;2023-04-08T01:36:25;95051.34;;;1.68;98.22
30110;BME280;14965;50.660;13.226;2023-04-08T01:38:53;95052.13;;;1.69;97.88
30110;BME280;14965;50.660;13.226;2023-04-08T01:41:20;95051.34;;;1.68;97.70
30110;BME280;14965;50.660;13.226;2023-04-08T01:43:48;95044.34;;;1.71;97.77
30110;BME280;14965;50.660;13.226;2023-04-08T01:46:15;95055.25;;;1.74;97.58
30110;BME280;14965;50.660;13.226;2023-04-08T01:48:43;95054.50;;;1.74;98.19
30110;BME280;14965;50.660;13.226;2023-04-08T01:51:11;95047.13;;;1.78;97.73
30110;BME280;14965;50.660;13.226;2023-04-08T01:53:37;95047.16;;;1.82;98.32
30110;BME280;14965;50.660;13.226;2023-04-08T01:56:06;95051.09;;;1.84;98.04
30110;BME280;14965;50.660;13.226;2023-04-08T01:58:39;95042.53;;;1.86;97.72
30110;BME280;14965;50.660;13.226;2023-04-08T02:01:11;95048.78;;;1.90;97.98
30110;BME280;14965;50.660;13.226;2023-04-08T02:03:38;95050.34;;;1.91;97.66
30110;BME280;14965;50.660;13.226;2023-04-08T02:06:06;95048.03;;;1.93;97.34
30110;BME280;14965;50.660;13.226;2023-04-08T02:08:33;95044.91;;;1.94;97.50
30110;BME280;14965;50.660;13.226;2023-04-08T02:10:59;95048.41;;;1.95;97.61
30110;BME280;14965;50.660;13.226;2023-04-08T02:13:25;95052.69;;;1.96;97.61
30110;BME280;14965;50.660;13.226;2023-04-08T02:15:56;95044.16;;;1.97;97.78
30110;BME280;14965;50.660;13.226;2023-04-08T02:18:26;95055.09;;;2.01;97.49
30110;BME280;14965;50.660;13.226;2023-04-08T02:20:58;95046.50;;;1.99;97.31
30110;BME280;14965;50.660;13.226;2023-04-08T02:23:28;95047.25;;;1.96;97.42
30110;BME280;14965;50.660;13.226;2023-04-08T02:25:57;95038.28;;;1.92;97.33
30110;BME280;14965;50.660;13.226;2023-04-08T02:28:26;95045.63;;;1.88;97.23
30110;BME280;14965;50.660;13.226;2023-04-08T02:30:54;95049.53;;;1.87;97.21
30110;BME280;14965;50.660;13.226;2023-04-08T02:33:22;95054.63;;;1.88;97.83
30110;BME280;14965;50.660;13.226;2023-04-08T02:35:55;95042.16;;;1.91;97.27
30110;BME280;14965;50.660;13.226;2023-04-08T02:38:21;95051.13;;;1.91;97.39
30110;BME280;14965;50.660;13.226;2023-04-08T02:40:49;95048.81;;;1.93;97.44
30110;BME280;14965;50.660;13.226;2023-04-08T02:43:15;95055.78;;;1.91;97.81
30110;BME280;14965;50.660;13.226;2023-04-08T02:45:42;95056.56;;;1.91;97.36
30110;BME280;14965;50.660;13.226;2023-04-08T02:48:08;95061.66;;;1.93;97.54
30110;BME280;14965;50.660;13.226;2023-04-08T02:50:34;95060.88;;;1.92;97.70
30110;BME280;14965;50.660;13.226;2023-04-08T02:53:02;95056.59;;;1.95;97.94
30110;BME280;14965;50.660;13.226;2023-04-08T02:55:28;95061.66;;;1.96;97.80
30110;BME280;14965;50.660;13.226;2023-04-08T02:57:54;95068.69;;;1.97;97.67
30110;BME280;14965;50.660;13.226;2023-04-08T03:00:20;95065.53;;;1.95;97.91
30110;BME280;14965;50.660;13.226;2023-04-08T03:02:46;95056.19;;;1.96;97.99
30110;BME280;14965;50.660;13.226;2023-04-08T03:05:11;95057.78;;;1.97;98.07
30110;BME280;14965;50.660;13.226;2023-04-08T03:07:38;95063.59;;;1.96;98.08
30110;BME280;14965;50.660;13.226;2023-04-08T03:10:07;95061.66;;;1.96;97.91
30110;BME280;14965;50.660;13.226;2023-04-08T03:12:33;95060.50;;;1.97;98.02
30110;BME280;14965;50.660;13.226;2023-04-08T03:14:59;95062.47;;;2.00;98.68
30110;BME280;14965;50.660;13.226;2023-04-08T03:17:25;95069.50;;;2.02;98.58
30110;BME280;14965;50.660;13.226;2023-04-08T03:19:50;95066.75;;;2.02;98.62
30110;BME280;14965;50.660;13.226;2023-04-08T03:22:17;95065.59;;;2.03;98.34
30110;BME280;14965;50.660;13.226;2023-04-08T03:24:43;95072.22;;;2.02;98.47
30110;BME280;14965;50.660;13.226;2023-04-08T03:27:11;95065.19;;;1.97;98.50
30110;BME280;14965;50.660;13.226;2023-04-08T03:29:37;95066.75;;;1.98;98.38
30110;BME280;14965;50.660;13.226;2023-04-08T03:32:03;95062.81;;;1.95;98.46
30110;BME280;14965;50.660;13.226;2023-04-08T03:34:29;95067.91;;;1.97;98.63
30110;BME280;14965;50.660;13.226;2023-04-08T03:36:55;95075.25;;;1.96;99.33
30110;BME280;14965;50.660;13.226;2023-04-08T03:39:21;95083.03;;;1.94;99.42
30110;BME280;14965;50.660;13.226;2023-04-08T03:41:46;95077.19;;;1.89;99.29
30110;BME280;14965;50.660;13.226;2023-04-08T03:44:14;95072.88;;;1.84;100.00
30110;BME280;14965;50.660;13.226;2023-04-08T03:46:41;95081.41;;;1.83;100.00
30110;BME280;14965;50.660;13.226;2023-04-08T03:49:06;95086.06;;;1.82;100.00
30110;BME280;14965;50.660;13.226;2023-04-08T03:51:32;95072.84;;;1.81;100.00
30110;BME280;14965;50.660;13.226;2023-04-08T03:53:58;95069.31;;;1.77;99.88
30110;BME280;14965;50.660;13.226;2023-04-08T03:56:24;95076.66;;;1.72;100.00
30110;BME280;14965;50.660;13.226;2023-04-08T03:58:50;95077.41;;;1.69;99.99
30110;BME280;14965;50.660;13.226;2023-04-08T04:01:17;95074.28;;;1.67;100.00
30110;BME280;14965;50.660;13.226;2023-04-08T04:03:43;95080.88;;;1.66;100.00
30110;BME280;14965;50.660;13.226;2023-04-08T04:06:09;95078.16;;;1.66;100.00
30110;BME280;14965;50.660;13.226;2023-04-08T04:08:35;95091.00;;;1.69;100.00
30110;BME280;14965;50.660;13.226;2023-04-08T04:11:01;95086.72;;;1.68;100.00
30110;BME280;14965;50.660;13.226;2023-04-08T04:13:27;95080.50;;;1.68;100.00
30110;BME280;14965;50.660;13.226;2023-04-08T04:15:53;95081.69;;;1.70;100.00
30110;BME280;14965;50.660;13.226;2023-04-08T04:18:20;95081.66;;;1.67;100.00
30110;BME280;14965;50.660;13.226;2023-04-08T04:20:46;95081.69;;;1.70;100.00
30110;BME280;14965;50.660;13.226;2023-04-08T04:23:12;95078.16;;;1.66;100.00
30110;BME280;14965;50.660;13.226;2023-04-08T04:25:40;95076.59;;;1.65;100.00
30110;BME280;14965;50.660;13.226;2023-04-08T04:28:06;95075.03;;;1.64;100.00
30110;BME280;14965;50.660;13.226;2023-04-08T04:30:32;95089.00;;;1.63;100.00
30110;BME280;14965;50.660;13.226;2023-04-08T04:32:58;95087.09;;;1.67;100.00
30110;BME280;14965;50.660;13.226;2023-04-08T04:35:25;95090.28;;;1.72;100.00
30110;BME280;14965;50.660;13.226;2023-04-08T04:37:51;95080.22;;;1.80;100.00
30110;BME280;14965;50.660;13.226;2023-04-08T04:40:17;95084.53;;;1.85;100.00
30110;BME280;14965;50.660;13.226;2023-04-08T04:42:43;95093.13;;;1.90;100.00
30110;BME280;14965;50.660;13.226;2023-04-08T04:45:09;95093.94;;;1.94;100.00
30110;BME280;14965;50.660;13.226;2023-04-08T04:47:35;95091.59;;;1.96;100.00
30110;BME280;14965;50.660;13.226;2023-04-08T04:50:01;95095.94;;;2.01;100.00
30110;BME280;14965;50.660;13.226;2023-04-08T04:52:29;95089.34;;;2.02;100.00
30110;BME280;14965;50.660;13.226;2023-04-08T04:54:56;95099.81;;;2.00;100.00
30110;BME280;14965;50.660;13.226;2023-04-08T04:57:22;95102.16;;;1.98;100.00
30110;BME280;14965;50.660;13.226;2023-04-08T04:59:48;95100.94;;;1.95;100.00
30110;BME280;14965;50.660;13.226;2023-04-08T05:02:14;95095.88;;;1.94;100.00
30110;BME280;14965;50.660;13.226;2023-04-08T05:04:40;95102.06;;;1.91;100.00
30110;BME280;14965;50.660;13.226;2023-04-08T05:07:06;95104.81;;;1.91;100.00
30110;BME280;14965;50.660;13.226;2023-04-08T05:09:33;95100.53;;;1.90;100.00
30110;BME280;14965;50.660;13.226;2023-04-08T05:11:59;95104.38;;;1.85;100.00
30110;BME280;14965;50.660;13.226;2023-04-08T05:14:27;95111.00;;;1.84;100.00
30110;BME280;14965;50.660;13.226;2023-04-08T05:16:53;95105.53;;;1.84;100.00
30110;BME280;14965;50.660;13.226;2023-04-08T05:19:19;95106.69;;;1.83;100.00
30110;BME280;14965;50.660;13.226;2023-04-08T05:21:45;95118.34;;;1.84;100.00
30110;BME280;14965;50.660;13.226;2023-04-08T05:24:11;95112.56;;;1.85;100.00
30110;BME280;14965;50.660;13.226;2023-04-08T05:26:38;95119.16;;;1.88;100.00
30110;BME280;14965;50.660;13.226;2023-04-08T05:29:04;95118.81;;;1.89;100.00
30110;BME280;14965;50.660;13.226;2023-04-08T05:31:30;95123.50;;;1.92;100.00
30110;BME280;14965;50.660;13.226;2023-04-08T05:33:56;95125.84;;;1.94;100.00
30110;BME280;14965;50.660;13.226;2023-04-08T05:36:22;95123.50;;;1.96;100.00
30110;BME280;14965;50.660;13.226;2023-04-08T05:38:48;95125.88;;;1.97;100.00
30110;BME280;14965;50.660;13.226;2023-04-08T05:41:14;95134.88;;;2.02;100.00
30110;BME280;14965;50.660;13.226;2023-04-08T05:43:41;95132.16;;;2.05;100.00
30110;BME280;14965;50.660;13.226;2023-04-08T05:46:08;95129.06;;;2.07;100.00
30110;BME280;14965;50.660;13.226;2023-04-08T05:48:35;95138.44;;;2.09;100.00
30110;BME280;14965;50.660;13.226;2023-04-08T05:51:01;95138.44;;;2.09;100.00
30110;BME280;14965;50.660;13.226;2023-04-08T05:53:27;95140.00;;;2.10;100.00
30110;BME280;14965;50.660;13.226;2023-04-08T05:55:53;95151.66;;;2.11;100.00
30110;BME280;14965;50.660;13.226;2023-04-08T05:58:19;95150.88;;;2.10;100.00
30110;BME280;14965;50.660;13.226;2023-04-08T06:00:46;95152.06;;;2.13;100.00
30110;BME280;14965;50.660;13.226;2023-04-08T06:03:12;95153.25;;;2.15;100.00
30110;BME280;14965;50.660;13.226;2023-04-08T06:05:38;95159.53;;;2.19;100.00
30110;BME280;14965;50.660;13.226;2023-04-08T06:08:04;95150.56;;;2.19;100.00
30110;BME280;14965;50.660;13.226;2023-04-08T06:10:30;95153.31;;;2.22;100.00
30110;BME280;14965;50.660;13.226;2023-04-08T06:12:56;95156.84;;;2.27;100.00
30110;BME280;14965;50.660;13.226;2023-04-08T06:15:22;95165.06;;;2.30;100.00
30110;BME280;14965;50.660;13.226;2023-04-08T06:17:49;95162.34;;;2.34;100.00
30110;BME280;14965;50.660;13.226;2023-04-08T06:20:15;95158.47;;;2.35;100.00
30110;BME280;14965;50.660;13.226;2023-04-08T06:22:41;95166.66;;;2.35;100.00
30110;BME280;14965;50.660;13.226;2023-04-08T06:25:07;95165.53;;;2.39;100.00
30110;BME280;14965;50.660;13.226;2023-04-08T06:27:33;95159.69;;;2.41;100.00
30110;BME280;14965;50.660;13.226;2023-04-08T06:29:59;95169.41;;;2.42;100.00
30110;BME280;14965;50.660;13.226;2023-04-08T06:32:25;95167.09;;;2.44;100.00
30110;BME280;14965;50.660;13.226;2023-04-08T06:34:52;95179.97;;;2.43;100.00
30110;BME280;14965;50.660;13.226;2023-04-08T06:37:18;95169.06;;;2.43;100.00
30110;BME280;14965;50.660;13.226;2023-04-08T06:39:44;95156.97;;;2.44;100.00
30110;BME280;14965;50.660;13.226;2023-04-08T06:42:10;95169.06;;;2.43;100.00
30110;BME280;14965;50.660;13.226;2023-04-08T06:44:36;95162.81;;;2.46;100.00
30110;BME280;14965;50.660;13.226;2023-04-08T06:47:02;95162.84;;;2.50;100.00
30110;BME280;14965;50.660;13.226;2023-04-08T06:49:27;95161.28;;;2.49;100.00
30110;BME280;14965;50.660;13.226;2023-04-08T06:51:55;95173.00;;;2.53;100.00
30110;BME280;14965;50.660;13.226;2023-04-08T06:54:21;95175.38;;;2.58;100.00
30110;BME280;14965;50.660;13.226;2023-04-08T06:56:46;95164.09;;;2.60;100.00
30110;BME280;14965;50.660;13.226;2023-04-08T06:59:12;95166.44;;;2.61;100.00
30110;BME280;14965;50.660;13.226;2023-04-08T07:01:38;95168.41;;;2.64;100.00
30110;BME280;14965;50.660;13.226;2023-04-08T07:04:04;95167.63;;;2.67;100.00
30110;BME280;14965;50.660;13.226;2023-04-08T07:06:30;95184.00;;;2.67;100.00
30110;BME280;14965;50.660;13.226;2023-04-08T07:08:57;95183.59;;;2.65;100.00
30110;BME280;14965;50.660;13.226;2023-04-08T07:11:23;95186.34;;;2.65;100.00
30110;BME280;14965;50.660;13.226;2023-04-08T07:13:49;95185.16;;;2.66;100.00
30110;BME280;14965;50.660;13.226;2023-04-08T07:16:15;95185.97;;;2.70;100.00
30110;BME280;14965;50.660;13.226;2023-04-08T07:18:41;95191.78;;;2.65;100.00
30110;BME280;14965;50.660;13.226;2023-04-08T07:21:07;95188.63;;;2.56;100.00
30110;BME280;14965;50.660;13.226;2023-04-08T07:23:33;95196.38;;;2.54;100.00
30110;BME280;14965;50.660;13.226;2023-04-08T07:26:03;95190.13;;;2.54;100.00
30110;BME280;14965;50.660;13.226;2023-04-08T07:28:29;95204.91;;;2.49;100.00
30110;BME280;14965;50.660;13.226;2023-04-08T07:30:54;95203.75;;;2.50;100.00
30110;BME280;14965;50.660;13.226;2023-04-08T07:33:20;95211.56;;;2.52;100.00
30110;BME280;14965;50.660;13.226;2023-04-08T07:35:46;95215.78;;;2.45;100.00
30110;BME280;14965;50.660;13.226;2023-04-08T07:38:12;95212.28;;;2.45;100.00
30110;BME280;14965;50.660;13.226;2023-04-08T07:40:38;95217.41;;;2.54;100.00
30110;BME280;14965;50.660;13.226;2023-04-08T07:43:05;95216.28;;;2.62;100.00
30110;BME280;14965;50.660;13.226;2023-04-08T07:45:31;95218.63;;;2.63;100.00
30110;BME280;14965;50.660;13.226;2023-04-08T07:47:56;95217.06;;;2.62;100.00
30110;BME280;14965;50.660;13.226;2023-04-08T07:50:22;95215.13;;;2.63;100.00
30110;BME280;14965;50.660;13.226;2023-04-08T07:52:48;95217.53;;;2.71;100.00
30110;BME280;14965;50.660;13.226;2023-04-08T07:55:14;95213.69;;;2.80;100.00
30110;BME280;14965;50.660;13.226;2023-04-08T07:57:40;95219.63;;;2.89;100.00
30110;BME280;14965;50.660;13.226;2023-04-08T08:00:09;95220.72;;;2.84;100.00
30110;BME280;14965;50.660;13.226;2023-04-08T08:02:34;95220.78;;;2.91;100.00
30110;BME280;14965;50.660;13.226;2023-04-08T08:05:00;95224.38;;;3.03;100.00
30110;BME280;14965;50.660;13.226;2023-04-08T08:07:26;95232.19;;;3.08;100.00
30110;BME280;14965;50.660;13.226;2023-04-08T08:09:52;95229.09;;;3.16;100.00
30110;BME280;14965;50.660;13.226;2023-04-08T08:12:18;95230.31;;;3.22;100.00
30110;BME280;14965;50.660;13.226;2023-04-08T08:14:44;95233.84;;;3.23;100.00
30110;BME280;14965;50.660;13.226;2023-04-08T08:17:11;95235.00;;;3.25;100.00
30110;BME280;14965;50.660;13.226;2023-04-08T08:19:37;95227.56;;;3.15;100.00
30110;BME280;14965;50.660;13.226;2023-04-08T08:22:03;95232.19;;;3.08;100.00
30110;BME280;14965;50.660;13.226;2023-04-08T08:24:28;95238.84;;;3.10;100.00
30110;BME280;14965;50.660;13.226;2023-04-08T08:26:54;95242.00;;;3.19;100.00
30110;BME280;14965;50.660;13.226;2023-04-08T08:29:20;95242.41;;;3.25;100.00
30110;BME280;14965;50.660;13.226;2023-04-08T08:31:46;95243.22;;;3.29;100.00
30110;BME280;14965;50.660;13.226;2023-04-08T08:34:13;95243.25;;;3.36;100.00
30110;BME280;14965;50.660;13.226;2023-04-08T08:36:39;95241.34;;;3.44;100.00
30110;BME280;14965;50.660;13.226;2023-04-08T08:39:05;95242.91;;;3.45;100.00
30110;BME280;14965;50.660;13.226;2023-04-08T08:41:34;95249.44;;;3.30;100.00
30110;BME280;14965;50.660;13.226;2023-04-08T08:44:01;95251.03;;;3.31;100.00
30110;BME280;14965;50.660;13.226;2023-04-08T08:46:27;95242.88;;;3.41;100.00
30110;BME280;14965;50.660;13.226;2023-04-08T08:48:53;95255.81;;;3.48;100.00
30110;BME280;14965;50.660;13.226;2023-04-08T08:51:20;95253.81;;;3.45;100.00
30110;BME280;14965;50.660;13.226;2023-04-08T08:53:47;95258.13;;;3.46;100.00
30110;BME280;14965;50.660;13.226;2023-04-08T08:56:13;95261.63;;;3.43;100.00
30110;BME280;14965;50.660;13.226;2023-04-08T08:58:39;95264.75;;;3.45;100.00
30110;BME280;14965;50.660;13.226;2023-04-08T09:01:30;95264.81;;;3.59;100.00
30110;BME280;14965;50.660;13.226;2023-04-08T09:04:07;95269.13;;;3.67;100.00
30110;BME280;14965;50.660;13.226;2023-04-08T09:06:35;95280.03;;;3.57;100.00
30110;BME280;14965;50.660;13.226;2023-04-08T09:09:01;95273.00;;;3.63;100.00
30110;BME280;14965;50.660;13.226;2023-04-08T09:11:27;95282.78;;;3.60;100.00
30110;BME280;14965;50.660;13.226;2023-04-08T09:13:54;95287.84;;;3.62;100.00
30110;BME280;14965;50.660;13.226;2023-04-08T09:16:21;95283.91;;;3.59;100.00
30110;BME280;14965;50.660;13.226;2023-04-08T09:18:47;95289.38;;;3.59;100.00
30110;BME280;14965;50.660;13.226;2023-04-08T09:21:16;95286.63;;;3.52;100.00
30110;BME280;14965;50.660;13.226;2023-04-08T09:23:45;95293.22;;;3.44;100.00
30110;BME280;14965;50.660;13.226;2023-04-08T09:26:13;95292.84;;;3.45;100.00
30110;BME280;14965;50.660;13.226;2023-04-08T09:28:40;95303.72;;;3.42;100.00
30110;BME280;14965;50.660;13.226;2023-04-08T09:31:19;95300.69;;;3.58;100.00
30110;BME280;14965;50.660;13.226;2023-04-08T09:33:45;95296.88;;;3.73;100.00
30110;BME280;14965;50.660;13.226;2023-04-08T09:36:11;95311.75;;;3.86;100.00
30110;BME280;14965;50.660;13.226;2023-04-08T09:38:37;95313.72;;;3.93;100.00
30110;BME280;14965;50.660;13.226;2023-04-08T09:41:07;95311.00;;;3.96;100.00
30110;BME280;14965;50.660;13.226;2023-04-08T09:43:35;95311.78;;;3.97;100.00
30110;BME280;14965;50.660;13.226;2023-04-08T09:46:10;95312.97;;;3.96;100.00
30110;BME280;14965;50.660;13.226;2023-04-08T09:48:40;95305.91;;;3.91;100.00
30110;BME280;14965;50.660;13.226;2023-04-08T09:51:11;95305.53;;;3.89;100.00
30110;BME280;14965;50.660;13.226;2023-04-08T09:53:46;95312.94;;;3.92;100.00
30110;BME280;14965;50.660;13.226;2023-04-08T09:56:16;95315.63;;;3.78;100.00
30110;BME280;14965;50.660;13.226;2023-04-08T09:58:51;95317.19;;;3.83;100.00
30110;BME280;14965;50.660;13.226;2023-04-08T10:01:27;95319.56;;;3.88;100.00
30110;BME280;14965;50.660;13.226;2023-04-08T10:03:59;95320.31;;;3.78;100.00
30110;BME280;14965;50.660;13.226;2023-04-08T10:06:28;95324.19;;;3.69;100.00
30110;BME280;14965;50.660;13.226;2023-04-08T10:08:55;95325.34;;;3.75;100.00
30110;BME280;14965;50.660;13.226;2023-04-08T10:11:24;95330.50;;;3.88;100.00
30110;BME280;14965;50.660;13.226;2023-04-08T10:13:50;95317.69;;;4.03;100.00
30110;BME280;14965;50.660;13.226;2023-04-08T10:16:21;95330.59;;;4.16;100.00
30110;BME280;14965;50.660;13.226;2023-04-08T10:18:48;95322.47;;;4.38;100.00
30110;BME280;14965;50.660;13.226;2023-04-08T10:21:34;95321.31;;;4.49;100.00
30110;BME280;14965;50.660;13.226;2023-04-08T10:24:01;95320.50;;;4.42;100.00
30110;BME280;14965;50.660;13.226;2023-04-08T10:26:37;95333.81;;;4.43;99.82
30110;BME280;14965;50.660;13.226;2023-04-08T10:29:40;95328.31;;;4.36;99.01
30110;BME280;14965;50.660;13.226;2023-04-08T10:32:06;95324.81;;;4.36;98.43
30110;BME280;14965;50.660;13.226;2023-04-08T10:34:32;95325.22;;;4.48;97.94
30110;BME280;14965;50.660;13.226;2023-04-08T10:36:58;95326.00;;;4.60;97.73
30110;BME280;14965;50.660;13.226;2023-04-08T10:39:24;95329.16;;;4.76;97.86
30110;BME280;14965;50.660;13.226;2023-04-08T10:41:53;95333.84;;;4.79;95.86
30110;BME280;14965;50.660;13.226;2023-04-08T10:44:23;95327.22;;;4.66;92.88
30110;BME280;14965;50.660;13.226;2023-04-08T10:46:51;95325.63;;;4.75;94.71
30110;BME280;14965;50.660;13.226;2023-04-08T10:49:18;95326.03;;;4.85;94.57
30110;BME280;14965;50.660;13.226;2023-04-08T10:51:45;95329.97;;;4.87;93.69
30110;BME280;14965;50.660;13.226;2023-04-08T10:54:13;95328.41;;;4.83;92.38
30110;BME280;14965;50.660;13.226;2023-04-08T10:56:47;95327.97;;;4.66;94.87
30110;BME280;14965;50.660;13.226;2023-04-08T10:59:27;95329.97;;;4.87;95.20
30110;BME280;14965;50.660;13.226;2023-04-08T11:01:53;95324.88;;;5.04;95.41
30110;BME280;14965;50.660;13.226;2023-04-08T11:04:19;95326.44;;;5.05;94.46
30110;BME280;14965;50.660;13.226;2023-04-08T11:06:45;95329.16;;;5.01;94.09
30110;BME280;14965;50.660;13.226;2023-04-08T11:09:13;95344.41;;;5.06;94.22
30110;BME280;14965;50.660;13.226;2023-04-08T11:11:41;95344.81;;;5.04;94.26
30110;BME280;14965;50.660;13.226;2023-04-08T11:14:08;95340.13;;;5.01;93.38
30110;BME280;14965;50.660;13.226;2023-04-08T11:16:36;95344.03;;;5.00;94.52
30110;BME280;14965;50.660;13.226;2023-04-08T11:19:04;95343.66;;;5.09;94.72
30110;BME280;14965;50.660;13.226;2023-04-08T11:21:31;95345.59;;;5.15;92.46
30110;BME280;14965;50.660;13.226;2023-04-08T11:23:58;95350.69;;;5.20;91.11
30110;BME280;14965;50.660;13.226;2023-04-08T11:26:25;95339.72;;;5.10;90.51
30110;BME280;14965;50.660;13.226;2023-04-08T11:28:51;95352.25;;;5.04;92.50
30110;BME280;14965;50.660;13.226;2023-04-08T11:31:19;95350.31;;;5.08;92.88
30110;BME280;14965;50.660;13.226;2023-04-08T11:33:48;95346.78;;;5.00;91.28
30110;BME280;14965;50.660;13.226;2023-04-08T11:36:17;95349.50;;;5.00;91.08
30110;BME280;14965;50.660;13.226;2023-04-08T11:38:44;95347.56;;;4.90;92.03
30110;BME280;14965;50.660;13.226;2023-04-08T11:41:10;95351.06;;;4.69;91.02
30110;BME280;14965;50.660;13.226;2023-04-08T11:43:36;95356.50;;;4.62;92.06
30110;BME280;14965;50.660;13.226;2023-04-08T11:46:08;95356.50;;;4.62;93.77
30110;BME280;14965;50.660;13.226;2023-04-08T11:48:34;95361.63;;;4.74;93.39
30110;BME280;14965;50.660;13.226;2023-04-08T11:51:06;95356.53;;;4.83;92.48
30110;BME280;14965;50.660;13.226;2023-04-08T11:53:32;95358.50;;;4.86;91.93
30110;BME280;14965;50.660;13.226;2023-04-08T11:56:14;95358.88;;;4.88;91.96
30110;BME280;14965;50.660;13.226;2023-04-08T11:58:40;95361.63;;;4.88;90.69
30110;BME280;14965;50.660;13.226;2023-04-08T12:01:06;95357.34;;;4.98;90.64
30110;BME280;14965;50.660;13.226;2023-04-08T12:03:32;95355.00;;;5.11;90.88
30110;BME280;14965;50.660;13.226;2023-04-08T12:05:58;95351.84;;;5.27;91.03
30110;BME280;14965;50.660;13.226;2023-04-08T12:08:25;95346.78;;;5.39;90.49
30110;BME280;14965;50.660;13.226;2023-04-08T12:10:51;95354.19;;;5.42;90.40
30110;BME280;14965;50.660;13.226;2023-04-08T12:13:17;95346.78;;;5.39;90.31
30110;BME280;14965;50.660;13.226;2023-04-08T12:15:43;95363.59;;;5.20;90.91
30110;BME280;14965;50.660;13.226;2023-04-08T12:18:09;95352.63;;;5.06;91.82
30110;BME280;14965;50.660;13.226;2023-04-08T12:20:35;95363.59;;;4.98;92.70
30110;BME280;14965;50.660;13.226;2023-04-08T12:23:01;95359.66;;;4.92;93.77
30110;BME280;14965;50.660;13.226;2023-04-08T12:25:29;95364.34;;;4.85;93.91
30110;BME280;14965;50.660;13.226;2023-04-08T12:27:54;95369.84;;;4.81;94.82
30110;BME280;14965;50.660;13.226;2023-04-08T12:30:20;95370.59;;;4.89;95.96
30110;BME280;14965;50.660;13.226;2023-04-08T12:32:46;95373.38;;;4.99;94.90
30110;BME280;14965;50.660;13.226;2023-04-08T12:35:12;95374.94;;;5.00;93.17
30110;BME280;14965;50.660;13.226;2023-04-08T12:37:38;95380.00;;;5.06;93.49
30110;BME280;14965;50.660;13.226;2023-04-08T12:40:05;95375.34;;;5.03;91.73
30110;BME280;14965;50.660;13.226;2023-04-08T12:42:33;95369.06;;;4.95;91.52
30110;BME280;14965;50.660;13.226;2023-04-08T12:44:59;95376.09;;;4.82;93.71
30110;BME280;14965;50.660;13.226;2023-04-08T12:47:25;95378.41;;;4.76;94.80
30110;BME280;14965;50.660;13.226;2023-04-08T12:49:51;95376.47;;;4.69;95.85
30110;BME280;14965;50.660;13.226;2023-04-08T12:52:16;95368.19;;;4.55;96.75
30110;BME280;14965;50.660;13.226;2023-04-08T12:54:42;95379.16;;;4.55;97.09
30110;BME280;14965;50.660;13.226;2023-04-08T12:57:08;95377.22;;;4.52;96.85